»·PEaware :: N736PM KEGE-KSLC

N736PM :: KEGE-KSLC

FLIGHT INFORMATION

Flight Status: Arrived
Operator: Privately registered:
United States
More flights under this callsign
Pilot: Paul A. (20189)
Aircraft: BOEING 737-600
(B736)
More flights by this aircraft type
Origin: KEGE Eagle Co Regl
United States
Destination: KSLC Salt Lake City Intl
United States
More flights between these airports :: More routes between these airports
Route: EKR3 EKR LEEHY5
File this flight plan on PilotEdge
Remarks:
Altitude:
(Current/Filed)
32,000ft
Speed:
(Current/Filed)
455kts
Departed: 11-Oct-18 07:37 AM
Arrived: 11-Oct-18 08:35 AM
Distance/Time
Traveled:
242nm/0:58
Distance/Time
To Go:
Arrived

Flight Plot

Page will automatically refresh every two minutes.

Flight plan parsing failed; only flown route is shown


Map Options




Map Legend


Flown Route
Filed Route
Departure Airport
Arrival Airport
Navaid (VOR, NDB)
Fix

Horizontal Profiles

Position Reports

Time Latitude Longitude Heading Altitude Ground
Speed
11-Oct-18 07:22 39.646169 -106.910573 180 6523ft 0kts
11-Oct-18 07:23 39.646169 -106.910573 180 6523ft 0kts
11-Oct-18 07:24 39.646169 -106.910573 180 6523ft 0kts
11-Oct-18 07:25 39.646169 -106.910573 180 6523ft 0kts
11-Oct-18 07:26 39.646169 -106.910573 180 6523ft 0kts
11-Oct-18 07:27 39.646169 -106.910573 180 6523ft 0kts
11-Oct-18 07:28 39.646169 -106.910573 180 6523ft 0kts
11-Oct-18 07:29 39.646169 -106.910573 180 6523ft 0kts
11-Oct-18 07:30 39.646168 -106.910573 180 6523ft 0kts
11-Oct-18 07:31 39.646168 -106.910573 180 6523ft 0kts
11-Oct-18 07:32 39.646168 -106.910573 180 6523ft 0kts
11-Oct-18 07:33 39.645755 -106.911257 237 6523ft 7kts
11-Oct-18 07:34 39.644903 -106.910730 88 6523ft 16kts
11-Oct-18 07:35 39.642515 -106.908111 83 6523ft 18kts
11-Oct-18 07:36 39.643360 -106.900709 78 6523ft 0kts
11-Oct-18 07:37 39.643362 -106.900697 78 6523ft 0kts
11-Oct-18 07:38 39.644329 -106.901343 266 6523ft 1kts
11-Oct-18 07:39 39.642359 -106.919153 261 6636ft 163kts
11-Oct-18 07:40 39.620677 -106.971932 233 9859ft 177kts
11-Oct-18 07:41 39.650888 -107.025407 334 11321ft 262kts
11-Oct-18 07:42 39.727140 -107.072120 328 13680ft 343kts
11-Oct-18 07:43 39.809955 -107.139612 301 17408ft 352kts
11-Oct-18 07:44 39.853301 -107.254507 287 20914ft 366kts
11-Oct-18 07:45 39.893607 -107.379567 287 22979ft 379kts
11-Oct-18 07:46 39.934828 -107.508503 286 25347ft 388kts
11-Oct-18 07:47 39.977328 -107.639788 286 28139ft 398kts
11-Oct-18 07:48 40.020050 -107.774404 286 30487ft 405kts
11-Oct-18 07:49 40.060605 -107.911140 279 32099ft 403kts
11-Oct-18 07:50 40.072722 -108.054050 269 32109ft 394kts
11-Oct-18 07:51 40.079368 -108.197343 269 32110ft 394kts
11-Oct-18 07:52 40.085513 -108.339982 269 32112ft 394kts
11-Oct-18 07:53 40.092047 -108.483154 269 32116ft 394kts
11-Oct-18 07:54 40.098214 -108.626052 269 32118ft 394kts
11-Oct-18 07:55 40.103777 -108.768964 268 32120ft 394kts
11-Oct-18 07:56 40.109217 -108.912313 268 32119ft 395kts
11-Oct-18 07:57 40.114412 -109.055301 268 32117ft 394kts
11-Oct-18 07:58 40.119391 -109.198789 268 32108ft 394kts
11-Oct-18 07:59 40.124352 -109.344824 268 31277ft 405kts
11-Oct-18 08:00 40.129793 -109.490839 266 30281ft 406kts
11-Oct-18 08:01 40.134602 -109.639206 266 29285ft 418kts
11-Oct-18 08:02 40.139707 -109.788764 266 28287ft 411kts
11-Oct-18 08:03 40.144004 -109.938808 266 27288ft 413kts
11-Oct-18 08:04 40.148089 -110.090077 267 26285ft 411kts
11-Oct-18 08:05 40.148609 -110.236906 264 25284ft 385kts
11-Oct-18 08:06 40.146956 -110.373219 265 24280ft 369kts
11-Oct-18 08:07 40.145381 -110.506559 265 23092ft 368kts
11-Oct-18 08:08 40.144055 -110.641448 266 22140ft 371kts
11-Oct-18 08:09 40.142651 -110.776016 266 21187ft 367kts
11-Oct-18 08:10 40.141259 -110.908863 267 20238ft 365kts
11-Oct-18 08:11 40.139298 -111.040027 267 19286ft 354kts
11-Oct-18 08:12 40.137188 -111.168342 267 19067ft 353kts
11-Oct-18 08:13 40.135202 -111.297122 267 19065ft 353kts
11-Oct-18 08:14 40.132852 -111.425476 266 19075ft 353kts
11-Oct-18 08:15 40.136613 -111.553636 283 19089ft 358kts
11-Oct-18 08:16 40.176585 -111.673280 292 18581ft 359kts
11-Oct-18 08:17 40.220353 -111.791537 292 17775ft 362kts
11-Oct-18 08:18 40.264474 -111.909781 298 17148ft 362kts
11-Oct-18 08:19 40.343729 -111.992630 326 16045ft 369kts
11-Oct-18 08:20 40.434271 -112.050307 343 14754ft 351kts
11-Oct-18 08:21 40.529335 -112.064557 351 12939ft 336kts
11-Oct-18 08:22 40.617888 -112.076097 352 11286ft 321kts
11-Oct-18 08:23 40.701147 -112.086025 353 10991ft 282kts
11-Oct-18 08:24 40.778843 -112.095130 353 11015ft 283kts
11-Oct-18 08:25 40.857610 -112.104475 353 10951ft 283kts
11-Oct-18 08:26 40.935390 -112.113729 354 9768ft 278kts
11-Oct-18 08:27 41.011879 -112.122807 354 8983ft 273kts
11-Oct-18 08:28 41.087976 -112.131899 355 8982ft 274kts
11-Oct-18 08:29 41.147166 -112.098669 78 8969ft 245kts
11-Oct-18 08:30 41.107299 -112.033327 142 8988ft 236kts
11-Oct-18 08:31 41.051218 -112.004602 175 8890ft 213kts
11-Oct-18 08:32 40.993183 -111.998452 174 7820ft 204kts
11-Oct-18 08:33 40.938388 -111.992092 174 6775ft 183kts
11-Oct-18 08:34 40.889101 -111.986348 174 5825ft 175kts
11-Oct-18 08:35 40.840176 -111.980654 174 4892ft 170kts
11-Oct-18 08:36 40.800669 -111.976072 174 4235ft 72kts
11-Oct-18 08:37 40.796886 -111.976837 263 4235ft 0kts
11-Oct-18 08:38 40.794924 -111.978679 175 4235ft 24kts
11-Oct-18 08:39 40.794086 -111.980918 175 4235ft 0kts

Navigation Log

Ident Type
Flight plan parsing failed, navigation log unavailable